Time;durP1;ratioP1;P1;durP2;ratioP2;P2;SDS_P1;SDS_P2;PMS_P1;PMS_P2;Temp;Humidity;BMP_temperature;BMP_pressure;BME280_temperature;BME280_humidity;BME280_pressure;Samples;Min_cycle;Max_cycle;Signal;HPM_P1;HPM_P2
2021/09/02 00:00:47;;;;;;;;;;;;;;;;;;5015296;28;20002;-66
2021/09/02 00:03:14;;;;;;;;;;;;;;;;;;5015304;28;20009;-67
2021/09/02 00:05:41;;;;;;;;;;;;;;;;;;5014714;28;20022;-66
2021/09/02 00:08:08;;;;;;;;;;;;;;;;;;5015310;28;20009;-66
2021/09/02 00:10:35;;;;;;;;;;;;;;;;;;5015081;28;20009;-67
2021/09/02 00:13:02;;;;;;;;;;;;;;;;;;5015081;28;20002;-66
2021/09/02 00:15:29;;;;;;;;;;;;;;;;;;5015091;28;20025;-66
2021/09/02 00:17:56;;;;;;;;;;;;;;;;;;5014987;28;20380;-66
2021/09/02 00:20:23;;;;;;;;;;;;;;;;;;5014728;28;20003;-66
2021/09/02 00:22:50;;;;;;;;;;;;;;;;;;5014823;28;20002;-67
2021/09/02 00:25:17;;;;;;;;;;;;;;;;;;5014779;28;20481;-66
2021/09/02 00:27:43;;;;;;;;;;;;;;;;;;5014901;28;20007;-67
2021/09/02 00:30:10;;;;;;;;;;;;;;;;;;5014662;28;20002;-67
2021/09/02 00:32:37;;;;;;;;;;;;;;;;;;5014753;28;20006;-66
2021/09/02 00:35:04;;;;;;;;;;;;;;;;;;5014710;28;20029;-66
2021/09/02 00:37:31;;;;;;;;;;;;;;;;;;5014988;28;20002;-66
2021/09/02 00:39:58;;;;;;;;;;;;;;;;;;5014297;28;20005;-67
2021/09/02 00:42:25;;;;;;;;;;;;;;;;;;5014732;28;20009;-66
2021/09/02 00:44:52;;;;;;;;;;;;;;;;;;5014540;28;20374;-67
2021/09/02 00:47:19;;;;;;;;;;;;;;;;;;5014792;28;20024;-66
2021/09/02 00:49:46;;;;;;;;;;;;;;;;;;5014458;28;20021;-67
2021/09/02 00:52:13;;;;;;;;;;;;;;;;;;5014281;28;20002;-66
2021/09/02 00:54:40;;;;;;;;;;;;;;;;;;5014462;28;20489;-66
2021/09/02 00:57:07;;;;;;;;;;;;;;;;;;5014511;28;20002;-67
2021/09/02 00:59:34;;;;;;;;;;;;;;;;;;5013988;28;20002;-66
2021/09/02 01:02:00;;;;;;;;;;;;;;;;;;5013745;28;20496;-66
2021/09/02 01:04:27;;;;;;;;;;;;;;;;;;5013995;28;20022;-66
2021/09/02 01:06:54;;;;;;;;;;;;;;;;;;5014203;28;20008;-67
2021/09/02 01:09:21;;;;;;;;;;;;;;;;;;5014015;28;20002;-67
2021/09/02 01:11:48;;;;;;;;;;;;;;;;;;5013822;28;20002;-66
2021/09/02 01:14:15;;;;;;;;;;;;;;;;;;5013806;28;20042;-67
2021/09/02 01:16:42;;;;;;;;;;;;;;;;;;5013686;28;20010;-66
2021/09/02 01:19:09;;;;;;;;;;;;;;;;;;5013823;28;20002;-67
2021/09/02 01:21:36;;;;;;;;;;;;;;;;;;5013947;28;20009;-69
2021/09/02 01:24:03;;;;;;;;;;;;;;;;;;5013673;28;20018;-66
2021/09/02 01:26:30;;;;;;;;;;;;;;;;;;5013350;28;20009;-66
2021/09/02 01:28:56;;;;;;;;;;;;;;;;;;5013966;28;20217;-66
2021/09/02 01:31:23;;;;;;;;;;;;;;;;;;5013846;28;20002;-67
2021/09/02 01:33:50;;;;;;;;;;;;;;;;;;5012842;28;20009;-66
2021/09/02 01:36:17;;;;;;;;;;;;;;;;;;5013707;28;20266;-66
2021/09/02 01:38:44;;;;;;;;;;;;;;;;;;5013510;28;20013;-66
2021/09/02 01:41:11;;;;;;;;;;;;;;;;;;5013489;28;20002;-66
2021/09/02 01:43:38;;;;;;;;;;;;;;;;;;5013460;28;20013;-66
2021/09/02 01:46:05;;;;;;;;;;;;;;;;;;5013203;28;20416;-66
2021/09/02 01:48:32;;;;;;;;;;;;;;;;;;5013393;28;20008;-66
2021/09/02 01:50:59;;;;;;;;;;;;;;;;;;5013144;28;20008;-68
2021/09/02 01:53:26;;;;;;;;;;;;;;;;;;5013356;28;20003;-68
2021/09/02 01:55:52;;;;;;;;;;;;;;;;;;5013058;28;20025;-68
2021/09/02 01:58:19;;;;;;;;;;;;;;;;;;5013371;28;20002;-67
2021/09/02 02:00:46;;;;;;;;;;;;;;;;;;5012687;28;20457;-68
2021/09/02 02:03:13;;;;;;;;;;;;;;;;;;5013260;28;20002;-68
2021/09/02 02:05:40;;;;;;;;;;;;;;;;;;5013050;28;20025;-67
2021/09/02 02:08:07;;;;;;;;;;;;;;;;;;5012910;28;20006;-68
2021/09/02 02:10:34;;;;;;;;;;;;;;;;;;5012735;28;20013;-68
2021/09/02 02:13:01;;;;;;;;;;;;;;;;;;5013184;28;20002;-66
2021/09/02 02:15:28;;;;;;;;;;;;;;;;;;5013193;28;20025;-67
2021/09/02 02:17:55;;;;;;;;;;;;;;;;;;5012894;28;20002;-67
2021/09/02 02:20:22;;;;;;;;;;;;;;;;;;5012426;28;20013;-68
2021/09/02 02:22:48;;;;;;;;;;;;;;;;;;5013227;28;20007;-67
2021/09/02 02:25:15;;;;;;;;;;;;;;;;;;5012585;28;20359;-66
2021/09/02 02:27:42;;;;;;;;;;;;;;;;;;5012852;28;20009;-67
2021/09/02 02:30:09;;;;;;;;;;;;;;;;;;5012599;28;20025;-67
2021/09/02 02:32:36;;;;;;;;;;;;;;;;;;5012461;28;20008;-67
2021/09/02 02:35:03;;;;;;;;;;;;;;;;;;5012580;28;20022;-66
2021/09/02 02:37:30;;;;;;;;;;;;;;;;;;5012356;28;20635;-67
2021/09/02 02:39:57;;;;;;;;;;;;;;;;;;5013103;28;20002;-67
2021/09/02 02:42:24;;;;;;;;;;;;;;;;;;5012711;28;20009;-67
2021/09/02 02:44:51;;;;;;;;;;;;;;;;;;5013109;28;20481;-66
2021/09/02 02:47:18;;;;;;;;;;;;;;;;;;5012885;28;20002;-67
2021/09/02 02:49:44;;;;;;;;;;;;;;;;;;5012951;28;20002;-66
2021/09/02 02:52:11;;;;;;;;;;;;;;;;;;5012346;28;20028;-67
2021/09/02 02:54:38;;;;;;;;;;;;;;;;;;5012946;28;20018;-67
2021/09/02 02:57:05;;;;;;;;;;;;;;;;;;5013443;28;20009;-67
2021/09/02 02:59:32;;;;;;;;;;;;;;;;;;5012402;28;20380;-66
2021/09/02 03:01:59;;;;;;;;;;;;;;;;;;5012149;28;20006;-67
2021/09/02 03:04:26;;;;;;;;;;;;;;;;;;5011978;28;20025;-66
2021/09/02 03:06:53;;;;;;;;;;;;;;;;;;5012303;28;20003;-68
2021/09/02 03:09:20;;;;;;;;;;;;;;;;;;5012534;28;20010;-67
2021/09/02 03:11:47;;;;;;;;;;;;;;;;;;5012346;28;20002;-67
2021/09/02 03:14:14;;;;;;;;;;;;;;;;;;5012298;28;20022;-67
2021/09/02 03:16:40;;;;;;;;;;;;;;;;;;5012558;28;20010;-67
2021/09/02 03:19:07;;;;;;;;;;;;;;;;;;5012057;28;20025;-67
2021/09/02 03:21:34;;;;;;;;;;;;;;;;;;5012578;28;20002;-68
2021/09/02 03:24:01;;;;;;;;;;;;;;;;;;5012356;28;20019;-67
2021/09/02 03:26:28;;;;;;;;;;;;;;;;;;5012258;28;20041;-67
2021/09/02 03:28:55;;;;;;;;;;;;;;;;;;5012125;28;20002;-68
2021/09/02 03:31:22;;;;;;;;;;;;;;;;;;5012170;28;20009;-68
2021/09/02 03:33:49;;;;;;;;;;;;;;;;;;5011703;28;20474;-68
2021/09/02 03:36:16;;;;;;;;;;;;;;;;;;5012288;28;20007;-67
2021/09/02 03:38:44;;;;;;;;;;;;;;;;;;5012139;28;20010;-68
2021/09/02 03:41:11;;;;;;;;;;;;;;;;;;5011803;28;20002;-67
2021/09/02 03:43:38;;;;;;;;;;;;;;;;;;5011969;28;20003;-67
2021/09/02 03:46:05;;;;;;;;;;;;;;;;;;5011853;28;20018;-68
2021/09/02 03:48:32;;;;;;;;;;;;;;;;;;5012032;28;20002;-67
2021/09/02 03:50:59;;;;;;;;;;;;;;;;;;5011919;28;20377;-68
2021/09/02 03:53:25;;;;;;;;;;;;;;;;;;5011872;28;20002;-68
2021/09/02 03:55:52;;;;;;;;;;;;;;;;;;5012422;28;20018;-67
2021/09/02 03:58:19;;;;;;;;;;;;;;;;;;5014624;28;20008;-68
2021/09/02 04:00:46;;;;;;;;;;;;;;;;;;5015085;28;20458;-68
2021/09/02 04:03:13;;;;;;;;;;;;;;;;;;5015362;28;20002;-68
2021/09/02 04:05:40;;;;;;;;;;;;;;;;;;5015447;28;20030;-67
2021/09/02 04:08:07;;;;;;;;;;;;;;;;;;5015342;28;20009;-68
2021/09/02 04:10:34;;;;;;;;;;;;;;;;;;5015552;28;20002;-68
2021/09/02 04:13:01;;;;;;;;;;;;;;;;;;5014997;28;20004;-68
2021/09/02 04:15:28;;;;;;;;;;;;;;;;;;5015274;28;20396;-68
2021/09/02 04:17:55;;;;;;;;;;;;;;;;;;5015442;28;20001;-68
2021/09/02 04:20:22;;;;;;;;;;;;;;;;;;5015117;28;20002;-68
2021/09/02 04:22:48;;;;;;;;;;;;;;;;;;5015056;28;20002;-68
2021/09/02 04:25:15;;;;;;;;;;;;;;;;;;5015187;28;20390;-68
2021/09/02 04:27:43;;;;;;;;;;;;;;;;;;5015088;28;20037;-68
2021/09/02 04:30:13;;;;;;;;;;;;;;;;;;5014720;28;20013;-67
2021/09/02 04:32:40;;;;;;;;;;;;;;;;;;5014732;28;20002;-68
2021/09/02 04:35:07;;;;;;;;;;;;;;;;;;5014779;28;20022;-68
2021/09/02 04:37:34;;;;;;;;;;;;;;;;;;5014951;28;20008;-68
2021/09/02 04:40:00;;;;;;;;;;;;;;;;;;5015045;28;20049;-68
2021/09/02 04:42:27;;;;;;;;;;;;;;;;;;5014337;28;20009;-68
2021/09/02 04:44:54;;;;;;;;;;;;;;;;;;5014615;28;20497;-68
2021/09/02 04:47:21;;;;;;;;;;;;;;;;;;5014771;28;20010;-67
2021/09/02 04:49:48;;;;;;;;;;;;;;;;;;5014728;28;20009;-68
2021/09/02 04:52:15;;;;;;;;;;;;;;;;;;5014093;28;20014;-67
2021/09/02 04:54:42;;;;;;;;;;;;;;;;;;5014767;28;20026;-68
2021/09/02 04:57:09;;;;;;;;;;;;;;;;;;5014097;28;20490;-68
2021/09/02 04:59:36;;;;;;;;;;;;;;;;;;5014475;28;20010;-68
2021/09/02 05:02:03;;;;;;;;;;;;;;;;;;5013887;28;20006;-68
2021/09/02 05:04:30;;;;;;;;;;;;;;;;;;5014268;28;20359;-68
2021/09/02 05:06:56;;;;;;;;;;;;;;;;;;5014597;28;20024;-68
2021/09/02 05:09:23;;;;;;;;;;;;;;;;;;5013455;28;20002;-68
2021/09/02 05:11:50;;;;;;;;;;;;;;;;;;5013647;28;20384;-68
2021/09/02 05:14:17;;;;;;;;;;;;;;;;;;5014238;28;20018;-68
2021/09/02 05:16:44;;;;;;;;;;;;;;;;;;5014415;28;20005;-68
2021/09/02 05:19:11;;;;;;;;;;;;;;;;;;5014123;28;20461;-68
2021/09/02 05:21:38;;;;;;;;;;;;;;;;;;5013589;28;20002;-68
2021/09/02 05:24:05;;;;;;;;;;;;;;;;;;5014109;28;20043;-68
2021/09/02 05:26:32;;;;;;;;;;;;;;;;;;5014163;28;20014;-68
2021/09/02 05:28:59;;;;;;;;;;;;;;;;;;5014490;28;20009;-68
2021/09/02 05:31:26;;;;;;;;;;;;;;;;;;5013654;28;20462;-68
2021/09/02 05:33:53;;;;;;;;;;;;;;;;;;5013525;28;20056;-68
2021/09/02 05:36:20;;;;;;;;;;;;;;;;;;5017236;23;20025;-68
2021/09/02 05:38:47;;;;;;;;;;;;;;;;;;5001711;28;20457;-66
2021/09/02 05:41:14;;;;;;;;;;;;;;;;;;4975711;28;19999;-66
2021/09/02 05:43:41;;;;;;;;;;;;;;;;;;4975058;28;20002;-65
2021/09/02 05:46:08;;;;;;;;;;;;;;;;;;4974368;28;20497;-65
2021/09/02 05:48:34;;;;;;;;;;;;;;;;;;4974793;28;20003;-65
2021/09/02 05:51:01;;;;;;;;;;;;;;;;;;4974554;28;20025;-65
2021/09/02 05:53:28;;;;;;;;;;;;;;;;;;4974635;28;20006;-66
2021/09/02 05:55:55;;;;;;;;;;;;;;;;;;4975310;28;20026;-65
2021/09/02 05:58:22;;;;;;;;;;;;;;;;;;4975011;28;20474;-65
2021/09/02 06:00:49;;;;;;;;;;;;;;;;;;4974453;28;20003;-66
2021/09/02 06:03:16;;;;;;;;;;;;;;;;;;4974626;28;20010;-69
2021/09/02 06:05:43;;;;;;;;;;;;;;;;;;4974388;28;20477;-69
2021/09/02 06:08:10;;;;;;;;;;;;;;;;;;4974612;28;20002;-68
2021/09/02 06:10:37;;;;;;;;;;;;;;;;;;4974334;28;20003;-66
2021/09/02 06:13:04;;;;;;;;;;;;;;;;;;4974133;28;20374;-66
2021/09/02 06:15:30;;;;;;;;;;;;;;;;;;4974656;28;20018;-68
2021/09/02 06:17:57;;;;;;;;;;;;;;;;;;4974319;28;20010;-66
2021/09/02 06:20:26;;;;;;;;;;;;;;;;;;4973623;28;20002;-65
2021/09/02 06:22:53;;;;;;;;;;;;;;;;;;4974153;28;20656;-65
2021/09/02 06:25:20;;;;;;;;;;;;;;;;;;4974015;28;20449;-66
2021/09/02 06:27:46;;;;;;;;;;;;;;;;;;4973999;28;20026;-65
2021/09/02 06:30:13;;;;;;;;;;;;;;;;;;4974135;28;20003;-66
2021/09/02 06:32:40;;;;;;;;;;;;;;;;;;4974004;28;20003;-66
2021/09/02 06:35:07;;;;;;;;;;;;;;;;;;4973376;28;20023;-67
2021/09/02 06:37:34;;;;;;;;;;;;;;;;;;4973717;28;20479;-67
2021/09/02 06:40:01;;;;;;;;;;;;;;;;;;4973983;28;20003;-67
2021/09/02 06:42:29;;;;;;;;;;;;;;;;;;4973831;28;20003;-66
2021/09/02 06:44:56;;;;;;;;;;;;;;;;;;4974097;28;20019;-66
2021/09/02 06:47:23;;;;;;;;;;;;;;;;;;4973489;28;20015;-66
2021/09/02 06:49:50;;;;;;;;;;;;;;;;;;4973391;28;20375;-67
2021/09/02 06:52:16;;;;;;;;;;;;;;;;;;4973916;28;20010;-66
2021/09/02 06:54:43;;;;;;;;;;;;;;;;;;4973952;28;20019;-67
2021/09/02 06:57:10;;;;;;;;;;;;;;;;;;4973576;28;20014;-66
2021/09/02 06:59:37;;;;;;;;;;;;;;;;;;4973537;28;20002;-66
2021/09/02 07:02:04;;;;;;;;;;;;;;;;;;4973455;28;20376;-66
2021/09/02 07:04:31;;;;;;;;;;;;;;;;;;4973621;28;20002;-66
2021/09/02 07:06:58;;;;;;;;;;;;;;;;;;4973140;28;20026;-67
2021/09/02 07:09:25;;;;;;;;;;;;;;;;;;4973480;28;20390;-66
2021/09/02 07:11:52;;;;;;;;;;;;;;;;;;4973372;28;20022;-67
2021/09/02 07:14:19;;;;;;;;;;;;;;;;;;4973738;28;20054;-66
2021/09/02 07:16:46;;;;;;;;;;;;;;;;;;4973365;28;20007;-66
2021/09/02 07:19:13;;;;;;;;;;;;;;;;;;4973448;28;20003;-66
2021/09/02 07:21:40;;;;;;;;;;;;;;;;;;4973005;28;20007;-67
2021/09/02 07:24:07;;;;;;;;;;;;;;;;;;4973546;28;20010;-66
2021/09/02 07:26:34;;;;;;;;;;;;;;;;;;4973090;28;20019;-66
2021/09/02 07:29:01;;;;;;;;;;;;;;;;;;4973069;28;20010;-66
2021/09/02 07:31:28;;;;;;;;;;;;;;;;;;4973172;28;20003;-65
2021/09/02 07:33:55;;;;;;;;;;;;;;;;;;4976846;28;20014;-65
2021/09/02 07:36:21;;;;;;;;;;;;;;;;;;4976786;28;20022;-66
2021/09/02 07:38:48;;;;;;;;;;;;;;;;;;4977018;28;20466;-67
2021/09/02 07:41:16;;;;;;;;;;;;;;;;;;4976619;28;20003;-66
2021/09/02 07:43:43;;;;;;;;;;;;;;;;;;4977094;28;20007;-66
2021/09/02 07:46:10;;;;;;;;;;;;;;;;;;4976748;28;20478;-66
2021/09/02 07:48:37;;;;;;;;;;;;;;;;;;4976358;28;20003;-66
2021/09/02 07:51:04;;;;;;;;;;;;;;;;;;4976674;28;20002;-66
2021/09/02 07:53:31;;;;;;;;;;;;;;;;;;4976739;28;20007;-67
2021/09/02 07:55:58;;;;;;;;;;;;;;;;;;4976310;28;20019;-66
2021/09/02 07:58:25;;;;;;;;;;;;;;;;;;4976444;28;20414;-67
2021/09/02 08:00:52;;;;;;;;;;;;;;;;;;4976500;28;20013;-66
2021/09/02 08:03:18;;;;;;;;;;;;;;;;;;4976745;28;20002;-66
2021/09/02 08:05:45;;;;;;;;;;;;;;;;;;4976089;28;20046;-66
2021/09/02 08:08:16;;;;;;;;;;;;;;;;;;4976391;28;20023;-66
2021/09/02 08:10:43;;;;;;;;;;;;;;;;;;4976337;28;20011;-67
2021/09/02 08:13:10;;;;;;;;;;;;;;;;;;4976707;28;20003;-66
2021/09/02 08:15:37;;;;;;;;;;;;;;;;;;4975816;28;20517;-66
2021/09/02 08:18:04;;;;;;;;;;;;;;;;;;4976315;28;20010;-66
2021/09/02 08:20:31;;;;;;;;;;;;;;;;;;4976259;28;20006;-66
2021/09/02 08:22:57;;;;;;;;;;;;;;;;;;4976032;28;20010;-66
2021/09/02 08:25:24;;;;;;;;;;;;;;;;;;4976035;28;20019;-65
2021/09/02 08:27:51;;;;;;;;;;;;;;;;;;4976030;28;20029;-67
2021/09/02 08:30:18;;;;;;;;;;;;;;;;;;4975834;28;20474;-66
2021/09/02 08:32:48;;;;;;;;;;;;;;;;;;4976671;28;20010;-66
2021/09/02 08:35:15;;;;;;;;;;;;;;;;;;4976082;28;20022;-65
2021/09/02 08:37:42;;;;;;;;;;;;;;;;;;4976060;28;20459;-66
2021/09/02 08:40:09;;;;;;;;;;;;;;;;;;4976028;28;20010;-66
2021/09/02 08:42:35;;;;;;;;;;;;;;;;;;4975694;28;20003;-67
2021/09/02 08:45:02;;;;;;;;;;;;;;;;;;4975814;28;20494;-66
2021/09/02 08:47:29;;;;;;;;;;;;;;;;;;4976054;28;20026;-66
2021/09/02 08:49:56;;;;;;;;;;;;;;;;;;4976291;28;20007;-66
2021/09/02 08:52:27;;;;;;;;;;;;;;;;;;4975339;28;20010;-66
2021/09/02 08:54:54;;;;;;;;;;;;;;;;;;4975416;28;20447;-65
2021/09/02 08:57:21;;;;;;;;;;;;;;;;;;4975631;28;20007;-66
2021/09/02 08:59:48;;;;;;;;;;;;;;;;;;4976167;28;20003;-66
2021/09/02 09:02:15;;;;;;;;;;;;;;;;;;4975376;28;20002;-66
2021/09/02 09:04:41;;;;;;;;;;;;;;;;;;4977864;28;20019;-66
2021/09/02 09:07:08;;;;;;;;;;;;;;;;;;4975538;28;20390;-66
2021/09/02 09:09:35;;;;;;;;;;;;;;;;;;4975476;28;20007;-66
2021/09/02 09:12:02;;;;;;;;;;;;;;;;;;4975634;28;20002;-67
2021/09/02 09:14:31;;;;;;;;;;;;;;;;;;4975515;28;20485;-65
2021/09/02 09:16:58;;;;;;;;;;;;;;;;;;4976062;28;20002;-65
2021/09/02 09:19:25;;;;;;;;;;;;;;;;;;4975420;28;20358;-66
2021/09/02 09:21:51;;;;;;;;;;;;;;;;;;4975288;28;20011;-65
2021/09/02 09:24:18;;;;;;;;;;;;;;;;;;4975549;28;20003;-67
2021/09/02 09:26:45;;;;;;;;;;;;;;;;;;4975024;28;20018;-66
2021/09/02 09:29:12;;;;;;;;;;;;;;;;;;4975522;28;20010;-66
2021/09/02 09:31:39;;;;;;;;;;;;;;;;;;4975502;28;20386;-66
2021/09/02 09:34:06;;;;;;;;;;;;;;;;;;4975176;28;20009;-68
2021/09/02 09:36:33;;;;;;;;;;;;;;;;;;4974803;28;20023;-66
2021/09/02 09:39:00;;;;;;;;;;;;;;;;;;4975511;28;20010;-65
2021/09/02 09:41:27;;;;;;;;;;;;;;;;;;4976061;28;20014;-67
2021/09/02 09:43:54;;;;;;;;;;;;;;;;;;4977066;28;20003;-66
2021/09/02 09:46:21;;;;;;;;;;;;;;;;;;4976299;28;20026;-66
2021/09/02 09:48:47;;;;;;;;;;;;;;;;;;4976197;28;20003;-66
2021/09/02 09:51:14;;;;;;;;;;;;;;;;;;4976067;28;20381;-66
2021/09/02 09:53:41;;;;;;;;;;;;;;;;;;4976325;28;20474;-66
2021/09/02 09:56:08;;;;;;;;;;;;;;;;;;4975493;28;20019;-66
2021/09/02 09:58:36;;;;;;;;;;;;;;;;;;4976738;28;20009;-67
2021/09/02 10:01:03;;;;;;;;;;;;;;;;;;4976761;28;20438;-66
2021/09/02 10:03:29;;;;;;;;;;;;;;;;;;4975943;28;20003;-66
2021/09/02 10:05:56;;;;;;;;;;;;;;;;;;4976249;28;20032;-66
2021/09/02 10:08:23;;;;;;;;;;;;;;;;;;4976552;28;20019;-67
2021/09/02 10:10:50;;;;;;;;;;;;;;;;;;4976492;28;20010;-66
2021/09/02 10:13:17;;;;;;;;;;;;;;;;;;4978447;28;20003;-66
2021/09/02 10:15:44;;;;;;;;;;;;;;;;;;4981971;28;20402;-67
2021/09/02 10:18:11;;;;;;;;;;;;;;;;;;4982120;28;20006;-66
2021/09/02 10:20:38;;;;;;;;;;;;;;;;;;4979637;28;20003;-67
2021/09/02 10:23:05;;;;;;;;;;;;;;;;;;4979781;28;20010;-66
2021/09/02 10:25:32;;;;;;;;;;;;;;;;;;4980956;28;20023;-67
2021/09/02 10:27:59;;;;;;;;;;;;;;;;;;4992338;28;20015;-66
2021/09/02 10:30:26;;;;;;;;;;;;;;;;;;4992263;28;20063;-67
2021/09/02 10:32:53;;;;;;;;;;;;;;;;;;4994350;28;20002;-67
2021/09/02 10:35:20;;;;;;;;;;;;;;;;;;4994783;28;20050;-67
2021/09/02 10:37:47;;;;;;;;;;;;;;;;;;4995318;28;20003;-67
2021/09/02 10:40:14;;;;;;;;;;;;;;;;;;4977250;28;20374;-66
2021/09/02 10:42:41;;;;;;;;;;;;;;;;;;4980955;28;20010;-66
2021/09/02 10:45:07;;;;;;;;;;;;;;;;;;4975840;28;20019;-66
2021/09/02 10:47:34;;;;;;;;;;;;;;;;;;4983752;28;20018;-67
2021/09/02 10:50:01;;;;;;;;;;;;;;;;;;4988394;28;20086;-66
2021/09/02 10:52:28;;;;;;;;;;;;;;;;;;4989478;28;20003;-67
2021/09/02 10:54:55;;;;;;;;;;;;;;;;;;4989486;28;20058;-66
2021/09/02 10:57:22;;;;;;;;;;;;;;;;;;4990197;28;20013;-67
2021/09/02 10:59:49;;;;;;;;;;;;;;;;;;4994226;28;20009;-67
2021/09/02 11:02:16;;;;;;;;;;;;;;;;;;4990982;28;20003;-66
2021/09/02 11:04:43;;;;;;;;;;;;;;;;;;4980341;28;20019;-69
2021/09/02 11:07:10;;;;;;;;;;;;;;;;;;4979368;28;20022;-66
2021/09/02 11:09:37;;;;;;;;;;;;;;;;;;4981630;28;20003;-66
2021/09/02 11:12:05;;;;;;;;;;;;;;;;;;4980045;28;20010;-66
2021/09/02 11:14:31;;;;;;;;;;;;;;;;;;4977766;28;20007;-66
2021/09/02 11:16:58;;;;;;;;;;;;;;;;;;4977629;28;20003;-67
2021/09/02 11:19:25;;;;;;;;;;;;;;;;;;4977480;28;20471;-67
2021/09/02 11:21:52;;;;;;;;;;;;;;;;;;4977167;28;20007;-67
2021/09/02 11:24:19;;;;;;;;;;;;;;;;;;4977347;28;20097;-66
2021/09/02 11:26:46;;;;;;;;;;;;;;;;;;4977306;28;20014;-66
2021/09/02 11:29:13;;;;;;;;;;;;;;;;;;4977108;28;20003;-67
2021/09/02 11:31:40;;;;;;;;;;;;;;;;;;4977155;28;20010;-66
2021/09/02 11:34:07;;;;;;;;;;;;;;;;;;4977214;28;20367;-67
2021/09/02 11:36:34;;;;;;;;;;;;;;;;;;5010846;23;20399;-64
2021/09/02 11:39:01;;;;;;;;;;;;;;;;;;5030317;28;19998;-64
2021/09/02 11:41:27;;;;;;;;;;;;;;;;;;5034974;28;19994;-64
2021/09/02 11:43:55;;;;;;;;;;;;;;;;;;5035049;28;20487;-64
2021/09/02 11:46:21;;;;;;;;;;;;;;;;;;5035449;28;20025;-64
2021/09/02 11:48:48;;;;;;;;;;;;;;;;;;5035371;28;20018;-64
2021/09/02 11:51:15;;;;;;;;;;;;;;;;;;5035016;28;20377;-64
2021/09/02 11:53:42;;;;;;;;;;;;;;;;;;5035548;28;20017;-64
2021/09/02 11:56:10;;;;;;;;;;;;;;;;;;5036225;28;20001;-64
2021/09/02 11:58:37;;;;;;;;;;;;;;;;;;5036146;28;20002;-64
2021/09/02 12:01:03;;;;;;;;;;;;;;;;;;5035103;28;20002;-64
2021/09/02 12:03:30;;;;;;;;;;;;;;;;;;5035046;28;20009;-64
2021/09/02 12:05:57;;;;;;;;;;;;;;;;;;5035443;28;20437;-64
2021/09/02 12:08:24;;;;;;;;;;;;;;;;;;5034667;28;20021;-65
2021/09/02 12:10:51;;;;;;;;;;;;;;;;;;5034921;28;20002;-64
2021/09/02 12:13:18;;;;;;;;;;;;;;;;;;5034746;28;20009;-64
2021/09/02 12:15:45;;;;;;;;;;;;;;;;;;5035166;28;20002;-64
2021/09/02 12:18:12;;;;;;;;;;;;;;;;;;5034250;28;20677;-64
2021/09/02 12:20:39;;;;;;;;;;;;;;;;;;5034465;28;20001;-64
2021/09/02 12:23:06;;;;;;;;;;;;;;;;;;5034921;28;20006;-64
2021/09/02 12:25:33;;;;;;;;;;;;;;;;;;5034954;28;20009;-64
2021/09/02 12:27:59;;;;;;;;;;;;;;;;;;5034204;28;20021;-64
2021/09/02 12:30:26;;;;;;;;;;;;;;;;;;5034673;28;20008;-65
2021/09/02 12:32:53;;;;;;;;;;;;;;;;;;5034879;28;20346;-65
2021/09/02 12:35:20;;;;;;;;;;;;;;;;;;5034627;28;20009;-64
2021/09/02 12:37:47;;;;;;;;;;;;;;;;;;5034274;28;20048;-64
2021/09/02 12:40:14;;;;;;;;;;;;;;;;;;5034379;28;20449;-66
2021/09/02 12:42:41;;;;;;;;;;;;;;;;;;5034531;28;20009;-66
2021/09/02 12:45:08;;;;;;;;;;;;;;;;;;5034441;28;20006;-66
2021/09/02 12:47:35;;;;;;;;;;;;;;;;;;5033960;28;20018;-66
2021/09/02 12:50:02;;;;;;;;;;;;;;;;;;5034277;28;20006;-65
2021/09/02 12:52:30;;;;;;;;;;;;;;;;;;5034035;28;20377;-66
2021/09/02 12:54:57;;;;;;;;;;;;;;;;;;5034030;28;20508;-65
2021/09/02 12:57:24;;;;;;;;;;;;;;;;;;5034246;28;20024;-66
2021/09/02 12:59:50;;;;;;;;;;;;;;;;;;5034138;28;20009;-66
2021/09/02 13:02:17;;;;;;;;;;;;;;;;;;5033659;28;20346;-66
2021/09/02 13:04:44;;;;;;;;;;;;;;;;;;5034198;28;20009;-66
2021/09/02 13:07:11;;;;;;;;;;;;;;;;;;5033952;28;20018;-66
2021/09/02 13:09:38;;;;;;;;;;;;;;;;;;5033880;28;20370;-66
2021/09/02 13:12:05;;;;;;;;;;;;;;;;;;5033600;28;20009;-64
2021/09/02 13:14:32;;;;;;;;;;;;;;;;;;5033944;28;20001;-64
2021/09/02 13:16:59;;;;;;;;;;;;;;;;;;5033407;28;20025;-64
2021/09/02 13:19:26;;;;;;;;;;;;;;;;;;5033929;28;20008;-64
2021/09/02 13:21:53;;;;;;;;;;;;;;;;;;5033714;28;20005;-64
2021/09/02 13:24:20;;;;;;;;;;;;;;;;;;5033370;28;20002;-65
2021/09/02 13:26:46;;;;;;;;;;;;;;;;;;5033659;28;20021;-64
2021/09/02 13:29:13;;;;;;;;;;;;;;;;;;5033163;28;20014;-65
2021/09/02 13:31:40;;;;;;;;;;;;;;;;;;5032776;28;20014;-64
2021/09/02 13:34:07;;;;;;;;;;;;;;;;;;5033830;28;20002;-64
2021/09/02 13:36:34;;;;;;;;;;;;;;;;;;5033212;28;20028;-64
2021/09/02 13:39:01;;;;;;;;;;;;;;;;;;5033172;28;20350;-64
2021/09/02 13:41:28;;;;;;;;;;;;;;;;;;5033337;28;20002;-64
2021/09/02 13:43:55;;;;;;;;;;;;;;;;;;5033636;28;20002;-64
2021/09/02 13:46:22;;;;;;;;;;;;;;;;;;5033337;28;20017;-65
2021/09/02 13:48:49;;;;;;;;;;;;;;;;;;5033196;28;20025;-64
2021/09/02 13:51:16;;;;;;;;;;;;;;;;;;5033040;28;20002;-64
2021/09/02 13:53:43;;;;;;;;;;;;;;;;;;5033281;28;20006;-64
2021/09/02 13:56:09;;;;;;;;;;;;;;;;;;5032908;28;20009;-64
2021/09/02 13:58:36;;;;;;;;;;;;;;;;;;5033239;28;20009;-65
2021/09/02 14:01:03;;;;;;;;;;;;;;;;;;5033003;28;20028;-64
2021/09/02 14:03:30;;;;;;;;;;;;;;;;;;5032588;28;20008;-65
2021/09/02 14:05:57;;;;;;;;;;;;;;;;;;5033061;28;20048;-64
2021/09/02 14:08:24;;;;;;;;;;;;;;;;;;5032797;28;20477;-65
2021/09/02 14:10:51;;;;;;;;;;;;;;;;;;5032658;28;20009;-64
2021/09/02 14:13:18;;;;;;;;;;;;;;;;;;5032882;28;20001;-64
2021/09/02 14:15:45;;;;;;;;;;;;;;;;;;5032535;28;20001;-64
2021/09/02 14:18:12;;;;;;;;;;;;;;;;;;5032284;28;20018;-64
2021/09/02 14:20:39;;;;;;;;;;;;;;;;;;5032792;28;20009;-64
2021/09/02 14:23:06;;;;;;;;;;;;;;;;;;5032369;28;20479;-64
2021/09/02 14:25:33;;;;;;;;;;;;;;;;;;5032937;28;20001;-64
2021/09/02 14:27:59;;;;;;;;;;;;;;;;;;5032279;28;20144;-64
2021/09/02 14:30:26;;;;;;;;;;;;;;;;;;5032109;28;20002;-64
2021/09/02 14:32:53;;;;;;;;;;;;;;;;;;5032640;28;20005;-65
2021/09/02 14:35:20;;;;;;;;;;;;;;;;;;5032543;28;20024;-64
2021/09/02 14:37:47;;;;;;;;;;;;;;;;;;5032034;28;20522;-64
2021/09/02 14:40:14;;;;;;;;;;;;;;;;;;5031984;28;20008;-65
2021/09/02 14:42:41;;;;;;;;;;;;;;;;;;5032285;28;20013;-65
2021/09/02 14:45:08;;;;;;;;;;;;;;;;;;5032216;28;20465;-66
2021/09/02 14:47:35;;;;;;;;;;;;;;;;;;5032174;28;20017;-66
2021/09/02 14:50:03;;;;;;;;;;;;;;;;;;5032249;28;20028;-65
2021/09/02 14:52:29;;;;;;;;;;;;;;;;;;5032097;28;20132;-65
2021/09/02 14:54:56;;;;;;;;;;;;;;;;;;5032073;28;20002;-65
2021/09/02 14:57:24;;;;;;;;;;;;;;;;;;5031702;28;20523;-65
2021/09/02 14:59:51;;;;;;;;;;;;;;;;;;5032410;28;20006;-66
2021/09/02 15:02:18;;;;;;;;;;;;;;;;;;5031951;28;20009;-65
2021/09/02 15:04:45;;;;;;;;;;;;;;;;;;5032395;28;20001;-66
2021/09/02 15:07:12;;;;;;;;;;;;;;;;;;5031790;28;20018;-66
2021/09/02 15:09:39;;;;;;;;;;;;;;;;;;5031907;28;20500;-66
2021/09/02 15:12:06;;;;;;;;;;;;;;;;;;5032004;28;20008;-65
2021/09/02 15:14:33;;;;;;;;;;;;;;;;;;5032077;28;20005;-66
2021/09/02 15:16:59;;;;;;;;;;;;;;;;;;5032246;28;20068;-66
2021/09/02 15:19:26;;;;;;;;;;;;;;;;;;5031906;28;20013;-66
2021/09/02 15:21:53;;;;;;;;;;;;;;;;;;5031764;28;20235;-66
2021/09/02 15:24:20;;;;;;;;;;;;;;;;;;5032270;28;20002;-66
2021/09/02 15:26:47;;;;;;;;;;;;;;;;;;5031596;28;20018;-64
2021/09/02 15:29:14;;;;;;;;;;;;;;;;;;5031916;28;20028;-64
2021/09/02 15:31:41;;;;;;;;;;;;;;;;;;5031871;28;20008;-64
2021/09/02 15:34:08;;;;;;;;;;;;;;;;;;5032062;28;20001;-64
2021/09/02 15:36:35;;;;;;;;;;;;;;;;;;5031419;28;20022;-64
2021/09/02 15:39:02;;;;;;;;;;;;;;;;;;5031940;28;20009;-64
2021/09/02 15:41:29;;;;;;;;;;;;;;;;;;5031562;28;20465;-66
2021/09/02 15:43:56;;;;;;;;;;;;;;;;;;5031814;28;20009;-65
2021/09/02 15:46:23;;;;;;;;;;;;;;;;;;5031700;28;20018;-65
2021/09/02 15:48:50;;;;;;;;;;;;;;;;;;5031385;28;20477;-65
2021/09/02 15:51:17;;;;;;;;;;;;;;;;;;5031581;28;20002;-65
2021/09/02 15:53:44;;;;;;;;;;;;;;;;;;5033732;28;20008;-65
2021/09/02 15:56:11;;;;;;;;;;;;;;;;;;5035216;28;20484;-66
2021/09/02 15:58:38;;;;;;;;;;;;;;;;;;5035492;28;20002;-67
2021/09/02 16:01:05;;;;;;;;;;;;;;;;;;5035007;28;20052;-66
2021/09/02 16:03:32;;;;;;;;;;;;;;;;;;5035232;28;20002;-67
2021/09/02 16:05:59;;;;;;;;;;;;;;;;;;5035248;28;20400;-67
2021/09/02 16:08:26;;;;;;;;;;;;;;;;;;5035167;28;20014;-67
2021/09/02 16:10:52;;;;;;;;;;;;;;;;;;5035317;28;20053;-67
2021/09/02 16:13:19;;;;;;;;;;;;;;;;;;5034907;28;20002;-67
2021/09/02 16:15:46;;;;;;;;;;;;;;;;;;5034832;28;20377;-67
2021/09/02 16:18:13;;;;;;;;;;;;;;;;;;5034845;28;20018;-67
2021/09/02 16:20:40;;;;;;;;;;;;;;;;;;5034889;28;20358;-67
2021/09/02 16:23:07;;;;;;;;;;;;;;;;;;5035109;28;20002;-66
2021/09/02 16:25:34;;;;;;;;;;;;;;;;;;5034717;28;20002;-67
2021/09/02 16:28:01;;;;;;;;;;;;;;;;;;5034835;28;20018;-67
2021/09/02 16:30:28;;;;;;;;;;;;;;;;;;5034403;28;20480;-67
2021/09/02 16:32:58;;;;;;;;;;;;;;;;;;5034643;28;20388;-67
2021/09/02 16:35:25;;;;;;;;;;;;;;;;;;5034896;28;20104;-67
2021/09/02 16:37:52;;;;;;;;;;;;;;;;;;5034370;28;20053;-66
2021/09/02 16:40:18;;;;;;;;;;;;;;;;;;5034273;28;20480;-67
2021/09/02 16:42:49;;;;;;;;;;;;;;;;;;5034426;28;20001;-66